Time;durP1;ratioP1;P1;durP2;ratioP2;P2;SDS_P1;SDS_P2;PMS_P1;PMS_P2;Temp;Humidity;BMP_temperature;BMP_pressure;BME280_temperature;BME280_humidity;BME280_pressure;Samples;Min_cycle;Max_cycle;Signal;HPM_P1;HPM_P2
2022/09/16 00:01:59;0.00;0.00;0.62;0.00;0.00;0.62;2.03;0.70;;;27.40;32.80;;;;;;2253768;61;20571;-65
2022/09/16 00:04:44;0.00;0.00;0.62;0.00;0.00;0.62;1.20;0.60;;;27.40;32.80;;;;;;2253554;61;20355;-63
2022/09/16 00:07:28;0.00;0.00;0.62;0.00;0.00;0.62;1.23;0.60;;;27.40;32.80;;;;;;2253461;61;20468;-64
2022/09/16 00:10:13;0.00;0.00;0.62;0.00;0.00;0.62;1.20;0.57;;;27.40;32.80;;;;;;2253349;61;20408;-64
2022/09/16 00:12:58;0.00;0.00;0.62;0.00;0.00;0.62;1.43;0.60;;;27.40;32.80;;;;;;2253544;61;20435;-65
2022/09/16 00:15:43;0.00;0.00;0.62;0.00;0.00;0.62;1.97;0.67;;;27.40;32.70;;;;;;2253869;61;20360;-62
2022/09/16 00:18:29;0.00;0.00;0.62;0.00;0.00;0.62;2.20;0.67;;;27.40;32.80;;;;;;2253114;61;20563;-65
2022/09/16 00:21:14;0.00;0.00;0.62;0.00;0.00;0.62;1.20;0.60;;;27.40;32.70;;;;;;2253092;61;20456;-64
2022/09/16 00:23:59;0.00;0.00;0.62;0.00;0.00;0.62;1.23;0.63;;;27.40;32.70;;;;;;2253782;61;20376;-64
2022/09/16 00:26:45;0.00;0.00;0.62;0.00;0.00;0.62;1.50;0.70;;;27.40;32.70;;;;;;2253241;61;20424;-64
2022/09/16 00:29:30;0.00;0.00;0.62;0.00;0.00;0.62;1.40;0.70;;;27.40;32.70;;;;;;2252837;61;20364;-65
2022/09/16 00:32:14;0.00;0.00;0.62;0.00;0.00;0.62;1.60;0.70;;;27.40;32.70;;;;;;2253192;61;20384;-64
2022/09/16 00:35:00;0.00;0.00;0.62;0.00;0.00;0.62;2.60;0.67;;;27.40;32.70;;;;;;2253176;61;20392;-65
2022/09/16 00:37:45;0.00;0.00;0.62;0.00;0.00;0.62;1.73;0.80;;;27.40;32.70;;;;;;2252981;61;20719;-65
2022/09/16 00:40:29;0.00;0.00;0.62;0.00;0.00;0.62;1.30;0.60;;;27.40;32.70;;;;;;2253129;61;20372;-64
2022/09/16 00:43:15;0.00;0.00;0.62;0.00;0.00;0.62;2.30;0.80;;;27.40;32.70;;;;;;2253334;61;20414;-64
2022/09/16 00:46:04;0.00;0.00;0.62;0.00;0.00;0.62;1.50;0.70;;;27.40;32.70;;;;;;2253632;61;20782;-64
2022/09/16 00:48:49;0.00;0.00;0.62;0.00;0.00;0.62;1.20;0.60;;;27.40;32.70;;;;;;2252825;61;20476;-65
2022/09/16 00:51:36;0.00;0.00;0.62;0.00;0.00;0.62;1.30;0.60;;;27.40;32.70;;;;;;2253142;61;20363;-65
2022/09/16 00:54:22;0.00;0.00;0.62;0.00;0.00;0.62;2.03;0.70;;;27.40;32.70;;;;;;2253232;61;20360;-63
2022/09/16 00:57:09;0.00;0.00;0.62;0.00;0.00;0.62;1.40;0.60;;;27.40;32.70;;;;;;2253572;61;20392;-65
2022/09/16 00:59:55;0.00;0.00;0.62;0.00;0.00;0.62;1.33;0.70;;;27.40;33.40;;;;;;2253335;61;20364;-65
2022/09/16 01:02:41;0.00;0.00;0.62;0.00;0.00;0.62;1.30;0.60;;;27.40;32.70;;;;;;2253085;61;20383;-64
2022/09/16 01:05:26;0.00;0.00;0.62;0.00;0.00;0.62;1.20;0.60;;;27.40;32.70;;;;;;2253119;61;20473;-66
2022/09/16 01:08:12;0.00;0.00;0.62;0.00;0.00;0.62;1.60;0.67;;;27.40;32.70;;;;;;2253915;61;20436;-64
2022/09/16 01:10:57;0.00;0.00;0.62;0.00;0.00;0.62;1.20;0.60;;;27.40;32.70;;;;;;2253042;61;20423;-65
2022/09/16 01:13:45;0.00;0.00;0.62;0.00;0.00;0.62;1.23;0.60;;;27.40;32.70;;;;;;2252955;61;20434;-65
2022/09/16 01:16:37;0.00;0.00;0.62;0.00;0.00;0.62;1.53;0.80;;;27.40;32.70;;;;;;2252921;61;20411;-67
2022/09/16 01:19:42;0.00;0.00;0.62;0.00;0.00;0.62;1.20;0.60;;;27.40;32.70;;;;;;2253522;61;20386;-68
2022/09/16 01:22:50;0.00;0.00;0.62;0.00;0.00;0.62;2.07;0.60;;;27.40;32.70;;;;;;2253519;61;20766;-68
2022/09/16 01:25:55;0.00;0.00;0.62;0.00;0.00;0.62;1.40;0.77;;;27.40;32.70;;;;;;2252992;61;20603;-69
2022/09/16 01:29:08;0.00;0.00;0.62;0.00;0.00;0.62;1.40;0.60;;;27.40;32.70;;;;;;2253106;61;20371;-68
2022/09/16 01:32:03;0.00;0.00;0.62;0.00;0.00;0.62;2.17;0.80;;;27.40;32.70;;;;;;2253143;61;20403;-69
2022/09/16 01:34:57;0.00;0.00;0.62;0.00;0.00;0.62;2.13;0.80;;;27.40;32.60;;;;;;2253097;61;20732;-69
2022/09/16 01:37:52;0.00;0.00;0.62;0.00;0.00;0.62;1.80;0.77;;;27.30;32.20;;;;;;2253669;61;20363;-69
2022/09/16 01:40:48;0.00;0.00;0.62;0.00;0.00;0.62;2.43;0.73;;;27.30;31.80;;;;;;2253099;61;20448;-68
2022/09/16 01:43:49;0.00;0.00;0.62;0.00;0.00;0.62;1.83;0.70;;;27.20;31.60;;;;;;2253094;61;20464;-68
2022/09/16 01:46:44;0.00;0.00;0.62;0.00;0.00;0.62;1.73;1.00;;;27.20;31.60;;;;;;2258525;61;20496;-70
2022/09/16 01:49:41;0.00;0.00;0.62;0.00;0.00;0.62;2.20;1.00;;;27.20;31.50;;;;;;2261807;61;20389;-70
2022/09/16 01:52:40;0.00;0.00;0.62;0.00;0.00;0.62;1.57;0.80;;;27.10;32.10;;;;;;2251312;61;20606;-71
2022/09/16 01:55:31;0.00;0.00;0.62;0.00;0.00;0.62;2.50;1.07;;;27.10;31.50;;;;;;2245811;61;20446;-71
2022/09/16 01:58:22;0.00;0.00;0.62;0.00;0.00;0.62;1.50;1.00;;;27.00;31.40;;;;;;2235070;62;20433;-68
2022/09/16 02:01:14;0.00;0.00;0.62;0.00;0.00;0.62;2.23;0.90;;;27.00;32.00;;;;;;2206098;62;20438;-69
2022/09/16 02:04:05;0.00;0.00;0.62;0.00;0.00;0.62;2.00;0.90;;;27.00;31.40;;;;;;2184884;62;1115094;-69
2022/09/16 02:06:55;0.00;0.00;0.62;0.00;0.00;0.62;1.87;0.90;;;27.00;31.40;;;;;;2188344;63;20338;-69
2022/09/16 02:09:44;0.00;0.00;0.62;0.00;0.00;0.62;1.83;0.70;;;26.90;31.30;;;;;;2187313;63;20371;-69
2022/09/16 02:12:35;0.00;0.00;0.62;0.00;0.00;0.62;1.87;0.80;;;26.90;31.30;;;;;;2187800;63;20418;-69
2022/09/16 02:15:23;0.00;0.00;0.62;0.00;0.00;0.62;2.03;0.90;;;26.80;31.20;;;;;;2188387;63;20648;-69
2022/09/16 02:18:13;0.00;0.00;0.62;0.00;0.00;0.62;1.93;0.83;;;26.80;31.20;;;;;;2188115;63;20804;-69
2022/09/16 02:21:01;0.00;0.00;0.62;0.00;0.00;0.62;2.57;0.97;;;26.80;31.30;;;;;;2187672;63;20381;-70
2022/09/16 02:23:53;0.00;0.00;0.62;0.00;0.00;0.62;3.77;1.10;;;26.80;31.20;;;;;;2188014;63;20770;-69
2022/09/16 02:26:43;0.00;0.00;0.62;0.00;0.00;0.62;2.30;0.90;;;26.70;31.20;;;;;;2187647;63;20399;-69
2022/09/16 02:29:35;0.00;0.00;0.62;0.00;0.00;0.62;2.03;0.90;;;26.70;31.20;;;;;;2188388;63;20593;-69
2022/09/16 02:32:24;0.00;0.00;0.62;0.00;0.00;0.62;2.00;0.97;;;26.60;31.10;;;;;;2187552;63;20390;-69
2022/09/16 02:35:13;0.00;0.00;0.62;0.00;0.00;0.62;3.30;1.00;;;26.60;31.80;;;;;;2187709;63;20419;-70
2022/09/16 02:38:01;0.00;0.00;0.62;0.00;0.00;0.62;1.63;0.87;;;26.60;31.10;;;;;;2187934;63;20616;-69
2022/09/16 02:40:51;0.00;0.00;0.62;0.00;0.00;0.62;1.30;0.70;;;26.60;31.10;;;;;;2187850;63;20748;-68
2022/09/16 02:43:36;0.00;0.00;0.62;0.00;0.00;0.62;2.23;1.40;;;26.50;31.00;;;;;;2188202;63;20482;-69
2022/09/16 02:46:30;0.00;0.00;0.62;0.00;0.00;0.62;2.27;0.90;;;26.50;31.10;;;;;;2187514;63;20395;-70
2022/09/16 02:49:23;0.00;0.00;0.62;0.00;0.00;0.62;2.33;1.00;;;26.50;31.10;;;;;;2187677;63;20782;-70
2022/09/16 02:52:16;0.00;0.00;0.62;0.00;0.00;0.62;1.57;0.80;;;26.50;31.00;;;;;;2188158;63;20655;-70
2022/09/16 02:55:12;0.00;0.00;0.62;0.00;0.00;0.62;3.50;0.97;;;26.40;31.00;;;;;;2187950;63;20606;-70
2022/09/16 02:57:58;0.00;0.00;0.62;0.00;0.00;0.62;2.80;1.30;;;26.40;31.00;;;;;;2187766;63;20407;-68
2022/09/16 03:00:47;0.00;0.00;0.62;0.00;0.00;0.62;2.10;1.33;;;26.30;30.90;;;;;;2187756;63;20394;-68
2022/09/16 03:03:31;0.00;0.00;0.62;0.00;0.00;0.62;1.60;0.90;;;26.30;30.90;;;;;;2196151;63;20403;-70
2022/09/16 03:06:20;0.00;0.00;0.62;0.00;0.00;0.62;2.50;0.90;;;26.30;30.90;;;;;;2203363;63;20395;-70
2022/09/16 03:09:07;0.00;0.00;0.62;0.00;0.00;0.62;1.50;0.77;;;26.30;30.90;;;;;;2202631;63;20455;-69
2022/09/16 03:12:43;0.00;0.00;0.62;0.00;0.00;0.62;1.70;0.80;;;26.30;31.10;;;;;;2202288;63;20368;-71
2022/09/16 03:15:47;0.00;0.00;0.62;0.00;0.00;0.62;1.50;0.80;;;26.30;30.90;;;;;;2201790;63;20415;-70
2022/09/16 03:18:58;0.00;0.00;0.62;0.00;0.00;0.62;1.87;0.87;;;26.20;30.90;;;;;;2202913;63;20381;-69
2022/09/16 03:21:52;0.00;0.00;0.62;0.00;0.00;0.62;2.13;0.80;;;26.20;31.50;;;;;;2203016;63;20967;-70
2022/09/16 03:24:48;0.00;0.00;0.62;0.00;0.00;0.62;3.90;0.90;;;26.20;30.90;;;;;;2203050;63;20365;-69
2022/09/16 03:27:39;0.00;0.00;0.62;0.00;0.00;0.62;3.30;1.30;;;26.20;30.80;;;;;;2202716;63;20405;-69
2022/09/16 03:30:24;0.00;0.00;0.62;0.00;0.00;0.62;1.70;0.90;;;26.20;30.90;;;;;;2203012;63;20398;-69
2022/09/16 03:33:21;0.00;0.00;0.62;0.00;0.00;0.62;1.80;0.80;;;26.20;31.00;;;;;;2202692;63;20418;-69
2022/09/16 03:36:11;0.00;0.00;0.62;0.00;0.00;0.62;2.63;0.97;;;26.10;31.10;;;;;;2205461;63;20495;-69
2022/09/16 03:38:58;0.00;0.00;0.62;0.00;0.00;0.62;1.30;0.70;;;26.10;31.20;;;;;;2202533;63;20468;-70
2022/09/16 03:41:44;0.00;0.00;0.62;0.00;0.00;0.62;1.70;1.00;;;26.10;31.20;;;;;;2202512;63;20803;-67
2022/09/16 03:44:33;0.00;0.00;0.62;0.00;0.00;0.62;1.80;1.00;;;26.10;31.30;;;;;;2202552;63;20415;-69
2022/09/16 03:47:17;0.00;0.00;0.62;0.00;0.00;0.62;1.90;0.83;;;26.10;31.20;;;;;;2202944;63;20549;-69
2022/09/16 03:50:05;0.00;0.00;0.62;0.00;0.00;0.62;1.63;0.90;;;26.10;31.30;;;;;;2202744;63;20434;-69
2022/09/16 03:52:49;0.00;0.00;0.62;0.00;0.00;0.62;2.47;1.00;;;26.10;31.20;;;;;;2202595;63;20445;-69
2022/09/16 03:55:34;0.00;0.00;0.62;0.00;0.00;0.62;2.17;0.90;;;26.00;31.00;;;;;;2202587;63;20731;-70
2022/09/16 03:58:19;0.00;0.00;0.62;0.00;0.00;0.62;2.50;1.00;;;26.00;31.00;;;;;;2203253;63;20379;-70
2022/09/16 04:01:04;0.00;0.00;0.62;0.00;0.00;0.62;2.33;0.90;;;26.00;30.90;;;;;;2203752;62;20379;-69
2022/09/16 04:03:49;0.00;0.00;0.62;0.00;0.00;0.62;2.47;1.00;;;26.00;30.80;;;;;;2214848;62;20398;-70
2022/09/16 04:06:35;0.00;0.00;0.62;0.00;0.00;0.62;1.80;0.87;;;25.90;30.80;;;;;;2229777;62;20710;-69
2022/09/16 04:09:19;0.00;0.00;0.62;0.00;0.00;0.62;2.77;0.90;;;25.90;30.80;;;;;;2229839;62;20373;-70
2022/09/16 04:12:06;0.00;0.00;0.62;0.00;0.00;0.62;1.97;0.80;;;25.90;30.80;;;;;;2229810;62;20744;-70
2022/09/16 04:14:51;0.00;0.00;0.62;0.00;0.00;0.62;2.30;1.07;;;25.80;30.70;;;;;;2229722;62;20426;-70
2022/09/16 04:17:36;0.00;0.00;0.62;0.00;0.00;0.62;2.43;0.90;;;25.80;30.80;;;;;;2229630;62;20788;-69
2022/09/16 04:20:20;0.00;0.00;0.62;0.00;0.00;0.62;3.53;1.00;;;25.80;30.80;;;;;;2230352;62;20372;-70
2022/09/16 04:23:07;0.00;0.00;0.62;0.00;0.00;0.62;1.37;0.83;;;25.80;30.80;;;;;;2229018;62;20406;-70
2022/09/16 04:25:56;0.00;0.00;0.62;0.00;0.00;0.62;2.07;0.93;;;25.80;30.90;;;;;;2229010;62;20634;-69
2022/09/16 04:28:41;0.00;0.00;0.62;0.00;0.00;0.62;2.53;1.00;;;25.70;30.80;;;;;;2230024;62;20361;-70
2022/09/16 04:31:25;0.00;0.00;0.62;0.00;0.00;0.62;3.67;1.40;;;25.70;30.80;;;;;;2229829;62;20396;-69
2022/09/16 04:34:10;0.00;0.00;0.62;0.00;0.00;0.62;2.27;1.00;;;25.70;30.70;;;;;;2226578;62;20387;-68
2022/09/16 04:36:55;0.00;0.00;0.62;0.00;0.00;0.62;2.83;1.07;;;25.60;30.80;;;;;;2229754;62;20585;-70
2022/09/16 04:39:41;0.00;0.00;0.62;0.00;0.00;0.62;2.17;1.07;;;25.60;30.80;;;;;;2229451;62;20999;-70
2022/09/16 04:42:26;0.00;0.00;0.62;0.00;0.00;0.62;2.40;0.80;;;25.60;30.80;;;;;;2229990;62;20392;-70
2022/09/16 04:45:11;0.00;0.00;0.62;0.00;0.00;0.62;1.80;0.80;;;25.60;30.80;;;;;;2229356;62;20771;-70
2022/09/16 04:47:56;0.00;0.00;0.62;0.00;0.00;0.62;2.03;1.10;;;25.50;30.80;;;;;;2229562;62;20356;-70
2022/09/16 04:50:41;0.00;0.00;0.62;0.00;0.00;0.62;1.57;0.90;;;25.50;30.80;;;;;;2227036;62;20365;-70
2022/09/16 04:53:26;0.00;0.00;0.62;0.00;0.00;0.62;1.60;0.90;;;25.50;31.60;;;;;;2229846;62;20385;-69
2022/09/16 04:56:15;0.00;0.00;0.62;0.00;0.00;0.62;1.80;1.00;;;25.50;30.90;;;;;;2229406;62;20362;-69
2022/09/16 04:59:02;0.00;0.00;0.62;0.00;0.00;0.62;2.40;0.97;;;25.50;30.90;;;;;;2229752;62;20375;-69
2022/09/16 05:01:47;0.00;0.00;0.62;0.00;0.00;0.62;1.97;1.00;;;25.50;31.00;;;;;;2235015;61;20473;-68
2022/09/16 05:04:32;0.00;0.00;0.62;0.00;0.00;0.62;2.20;1.10;;;25.40;31.00;;;;;;2249708;61;20385;-70
2022/09/16 05:07:17;0.00;0.00;0.62;0.00;0.00;0.62;1.60;0.90;;;25.50;31.00;;;;;;2249003;61;20456;-70
2022/09/16 05:10:01;0.00;0.00;0.62;0.00;0.00;0.62;2.00;0.80;;;25.50;31.10;;;;;;2249157;61;20473;-69
2022/09/16 05:12:51;0.00;0.00;0.62;0.00;0.00;0.62;1.40;0.80;;;25.40;31.70;;;;;;2249889;61;20408;-70
2022/09/16 05:15:36;0.00;0.00;0.62;0.00;0.00;0.62;1.50;0.73;;;25.40;31.10;;;;;;2249465;61;20428;-70
2022/09/16 05:18:21;0.00;0.00;0.62;0.00;0.00;0.62;2.43;0.80;;;25.40;31.10;;;;;;2249250;61;20464;-71
2022/09/16 05:21:09;0.00;0.00;0.62;0.00;0.00;0.62;1.60;0.70;;;25.40;31.20;;;;;;2247088;61;20985;-71
2022/09/16 05:23:58;0.00;0.00;0.62;0.00;0.00;0.62;2.37;0.93;;;25.40;31.30;;;;;;2247536;61;20416;-69
2022/09/16 05:26:43;0.00;0.00;0.62;0.00;0.00;0.62;1.70;1.00;;;25.40;31.30;;;;;;2250991;61;20626;-68
2022/09/16 05:29:29;0.00;0.00;0.62;0.00;0.00;0.62;1.30;0.70;;;25.40;31.30;;;;;;2250182;61;20360;-70
2022/09/16 05:32:13;0.00;0.00;0.62;0.00;0.00;0.62;1.93;1.10;;;25.40;31.30;;;;;;2250340;61;20481;-70
2022/09/16 05:34:58;0.00;0.00;0.62;0.00;0.00;0.62;1.60;0.80;;;25.40;31.30;;;;;;2251010;61;20357;-69
2022/09/16 05:37:42;0.00;0.00;0.62;0.00;0.00;0.62;2.13;1.10;;;25.40;31.20;;;;;;2250425;61;20399;-70
2022/09/16 05:40:27;0.00;0.00;0.62;0.00;0.00;0.62;2.17;0.90;;;25.40;31.20;;;;;;2250383;61;20359;-70
2022/09/16 05:43:12;0.00;0.00;0.62;0.00;0.00;0.62;2.23;1.23;;;25.40;31.20;;;;;;2250538;61;20387;-70
2022/09/16 05:45:59;0.00;0.00;0.62;0.00;0.00;0.62;1.80;1.10;;;25.40;31.80;;;;;;2250657;61;20388;-70
2022/09/16 05:48:43;0.00;0.00;0.62;0.00;0.00;0.62;2.73;1.10;;;25.40;31.20;;;;;;2251180;61;20365;-69
2022/09/16 05:51:28;0.00;0.00;0.62;0.00;0.00;0.62;1.77;0.90;;;25.40;31.20;;;;;;2250086;61;20380;-70
2022/09/16 05:54:13;0.00;0.00;0.62;0.00;0.00;0.62;2.70;0.93;;;25.40;31.10;;;;;;2250425;61;20713;-69
2022/09/16 05:56:58;0.00;0.00;0.62;0.00;0.00;0.62;1.90;0.90;;;25.30;31.00;;;;;;2251006;61;20356;-68
2022/09/16 05:59:42;0.00;0.00;0.62;0.00;0.00;0.62;2.50;1.07;;;25.30;31.00;;;;;;2250276;61;20368;-68
2022/09/16 06:02:29;0.00;0.00;0.62;0.00;0.00;0.62;2.17;0.90;;;25.30;31.00;;;;;;2252201;61;20387;-70
2022/09/16 06:05:14;0.00;0.00;0.62;0.00;0.00;0.62;2.30;1.13;;;25.20;30.90;;;;;;2254398;61;20368;-69
2022/09/16 06:08:00;0.00;0.00;0.62;0.00;0.00;0.62;3.40;1.10;;;25.20;31.60;;;;;;2254690;61;20767;-69
2022/09/16 06:10:44;0.00;0.00;0.62;0.00;0.00;0.62;1.53;0.83;;;25.20;31.00;;;;;;2254732;61;20366;-71
2022/09/16 06:13:29;0.00;0.00;0.62;0.00;0.00;0.62;2.40;1.07;;;25.20;31.00;;;;;;2254232;61;20452;-68
2022/09/16 06:16:14;0.00;0.00;0.62;0.00;0.00;0.62;2.40;1.00;;;25.10;31.00;;;;;;2254377;61;20426;-67
2022/09/16 06:19:02;0.00;0.00;0.62;0.00;0.00;0.62;3.00;0.93;;;25.10;31.00;;;;;;2254376;61;20359;-71
2022/09/16 06:21:47;0.00;0.00;0.62;0.00;0.00;0.62;1.90;0.97;;;25.10;31.10;;;;;;2251869;61;20459;-67
2022/09/16 06:24:32;0.00;0.00;0.62;0.00;0.00;0.62;1.90;0.90;;;25.00;31.10;;;;;;2250025;61;20360;-66
2022/09/16 06:27:17;0.00;0.00;0.62;0.00;0.00;0.62;1.63;0.83;;;25.00;31.10;;;;;;2253698;61;20426;-67
2022/09/16 06:30:03;0.00;0.00;0.62;0.00;0.00;0.62;2.23;0.83;;;25.00;31.80;;;;;;2254671;61;20355;-67
2022/09/16 06:32:48;0.00;0.00;0.62;0.00;0.00;0.62;1.50;0.80;;;25.00;31.20;;;;;;2253619;61;20386;-68
2022/09/16 06:35:35;0.00;0.00;0.62;0.00;0.00;0.62;1.60;0.80;;;25.00;31.30;;;;;;2253815;61;20414;-68
2022/09/16 06:38:20;0.00;0.00;0.62;0.00;0.00;0.62;1.80;1.03;;;25.00;31.30;;;;;;2253552;61;20884;-65
2022/09/16 06:41:07;0.00;0.00;0.62;0.00;0.00;0.62;4.03;1.37;;;25.00;31.30;;;;;;2253979;61;20407;-66
2022/09/16 06:43:52;0.00;0.00;0.62;0.00;0.00;0.62;2.27;1.30;;;25.00;31.10;;;;;;2253512;61;20388;-67
2022/09/16 06:46:37;0.00;0.00;0.62;0.00;0.00;0.62;1.63;0.80;;;24.90;31.00;;;;;;2253402;61;20387;-66
2022/09/16 06:49:22;0.00;0.00;0.62;0.00;0.00;0.62;1.83;0.90;;;24.90;31.10;;;;;;2253694;61;20355;-68
2022/09/16 06:52:10;0.00;0.00;0.62;0.00;0.00;0.62;1.40;0.70;;;24.90;31.10;;;;;;2253838;61;20415;-64
2022/09/16 06:54:55;0.00;0.00;0.62;0.00;0.00;0.62;2.70;1.10;;;24.90;31.20;;;;;;2253672;61;20367;-67
2022/09/16 06:57:40;0.00;0.00;0.62;0.00;0.00;0.62;1.50;0.73;;;24.90;31.20;;;;;;2253703;61;20390;-63
2022/09/16 07:00:25;0.00;0.00;0.62;0.00;0.00;0.62;2.07;1.00;;;24.90;31.30;;;;;;2253880;61;20727;-65
2022/09/16 07:03:10;0.00;0.00;0.62;0.00;0.00;0.62;2.97;0.80;;;24.90;31.30;;;;;;2246243;61;20723;-70
2022/09/16 07:05:56;0.00;0.00;0.62;0.00;0.00;0.62;3.80;1.10;;;24.80;31.20;;;;;;2245435;61;20387;-69
2022/09/16 07:08:43;0.00;0.00;0.62;0.00;0.00;0.62;2.37;0.80;;;24.90;31.10;;;;;;2245685;61;20397;-68
2022/09/16 07:11:28;0.00;0.00;0.62;0.00;0.00;0.62;2.90;1.20;;;24.80;30.90;;;;;;2245972;61;20458;-69
2022/09/16 07:14:13;0.00;0.00;0.62;0.00;0.00;0.62;2.97;1.00;;;24.80;30.90;;;;;;2245846;61;20405;-66
2022/09/16 07:16:59;0.00;0.00;0.62;0.00;0.00;0.62;2.90;1.10;;;24.80;30.80;;;;;;2245673;61;20377;-66
2022/09/16 07:19:44;0.00;0.00;0.62;0.00;0.00;0.62;1.80;1.00;;;24.70;30.70;;;;;;2245526;61;20377;-65
2022/09/16 07:22:31;0.00;0.00;0.62;0.00;0.00;0.62;3.40;1.27;;;24.70;30.70;;;;;;2245566;61;20396;-69
2022/09/16 07:25:17;0.00;0.00;0.62;0.00;0.00;0.62;1.77;0.80;;;24.60;30.70;;;;;;2246912;61;20364;-67
2022/09/16 07:28:02;0.00;0.00;0.62;0.00;0.00;0.62;2.80;0.77;;;24.60;30.70;;;;;;2249274;61;20396;-67
2022/09/16 07:30:47;0.00;0.00;0.62;0.00;0.00;0.62;1.83;1.13;;;24.60;31.00;;;;;;2249092;61;20407;-67
2022/09/16 07:33:37;0.00;0.00;0.62;0.00;0.00;0.62;5.30;1.10;;;24.50;30.60;;;;;;2249982;61;20462;-68
2022/09/16 07:36:25;0.00;0.00;0.62;0.00;0.00;0.62;2.90;1.00;;;24.50;30.60;;;;;;2249706;61;20352;-67
2022/09/16 07:39:11;0.00;0.00;0.62;0.00;0.00;0.62;3.57;1.10;;;24.50;30.50;;;;;;2251408;56;20364;-67
2022/09/16 07:41:57;0.00;0.00;0.62;0.00;0.00;0.62;2.23;0.77;;;24.40;30.50;;;;;;2245880;61;20462;-63
2022/09/16 07:44:42;0.00;0.00;0.62;0.00;0.00;0.62;3.50;1.07;;;24.40;30.50;;;;;;2245232;61;20521;-63
2022/09/16 07:47:26;0.00;0.00;0.62;0.00;0.00;0.62;2.53;1.10;;;24.30;30.50;;;;;;2245245;61;20429;-61
2022/09/16 07:50:11;0.00;0.00;0.62;0.00;0.00;0.62;2.60;0.90;;;24.30;30.60;;;;;;2245681;61;20663;-62
2022/09/16 07:52:56;0.00;0.00;0.62;0.00;0.00;0.62;3.33;0.97;;;24.30;30.50;;;;;;2245402;61;20382;-65
2022/09/16 07:55:41;0.00;0.00;0.62;0.00;0.00;0.62;2.80;1.00;;;24.30;30.60;;;;;;2245292;61;20376;-66
2022/09/16 07:58:27;0.00;0.00;0.62;0.00;0.00;0.62;4.97;1.20;;;24.20;30.40;;;;;;2245821;61;20433;-66
2022/09/16 08:01:14;0.00;0.00;0.62;0.00;0.00;0.62;3.67;1.00;;;24.20;30.50;;;;;;2244851;61;20372;-66
2022/09/16 08:03:59;0.00;0.00;0.62;0.00;0.00;0.62;1.90;1.03;;;24.20;30.60;;;;;;2246021;61;20491;-69
2022/09/16 08:06:44;0.00;0.00;0.62;0.00;0.00;0.62;2.33;0.90;;;24.20;30.70;;;;;;2245531;61;20413;-68
2022/09/16 08:09:29;0.00;0.00;0.62;0.00;0.00;0.62;2.20;0.93;;;24.20;30.80;;;;;;2245311;61;20365;-70
2022/09/16 08:12:13;0.00;0.00;0.62;0.00;0.00;0.62;1.93;0.80;;;24.20;30.90;;;;;;2245829;61;20445;-70
2022/09/16 08:15:00;0.00;0.00;0.62;0.00;0.00;0.62;1.80;1.33;;;24.20;31.00;;;;;;2245303;61;20401;-67
2022/09/16 08:17:45;0.00;0.00;0.62;0.00;0.00;0.62;1.90;0.83;;;24.20;31.10;;;;;;2245078;61;20358;-67
2022/09/16 08:20:29;0.00;0.00;0.62;0.00;0.00;0.62;1.57;0.70;;;24.30;31.30;;;;;;2245739;61;20573;-67
2022/09/16 08:23:14;0.00;0.00;0.62;0.00;0.00;0.62;1.77;0.90;;;24.30;31.30;;;;;;2245331;61;20417;-68
2022/09/16 08:26:00;0.00;0.00;0.62;0.00;0.00;0.62;2.53;0.80;;;24.30;31.30;;;;;;2245419;61;20385;-68
2022/09/16 08:28:46;0.00;0.00;0.62;0.00;0.00;0.62;1.70;0.90;;;24.40;31.40;;;;;;2245989;61;20447;-68
2022/09/16 08:31:32;0.00;0.00;0.62;0.00;0.00;0.62;1.30;0.60;;;24.40;31.40;;;;;;2245274;61;20386;-69
2022/09/16 08:34:17;0.00;0.00;0.62;0.00;0.00;0.62;1.70;0.70;;;24.50;31.60;;;;;;2245616;61;20370;-67
2022/09/16 08:37:02;0.00;0.00;0.62;0.00;0.00;0.62;2.37;1.00;;;24.50;31.60;;;;;;2245237;61;20435;-67
2022/09/16 08:39:50;0.00;0.00;0.62;0.00;0.00;0.62;1.60;0.60;;;24.60;31.70;;;;;;2244865;61;20433;-69
2022/09/16 08:42:54;0.00;0.00;0.62;0.00;0.00;0.62;1.30;0.70;;;24.60;32.30;;;;;;2245556;61;20377;-68
2022/09/16 08:45:49;0.00;0.00;0.62;0.00;0.00;0.62;1.77;0.70;;;24.70;31.80;;;;;;2245228;61;20361;-67
2022/09/16 08:48:47;0.00;0.00;0.62;0.00;0.00;0.62;1.50;0.70;;;24.70;31.80;;;;;;2245990;61;20361;-68
2022/09/16 08:51:32;0.00;0.00;0.62;0.00;0.00;0.62;1.40;0.70;;;24.70;31.80;;;;;;2245068;61;20365;-66
2022/09/16 08:54:26;0.00;0.00;0.62;0.00;0.00;0.62;1.30;0.67;;;24.80;31.90;;;;;;2245212;61;20358;-66
2022/09/16 08:57:17;0.00;0.00;0.62;0.00;0.00;0.62;1.20;0.60;;;24.90;32.00;;;;;;2245569;61;20390;-66
2022/09/16 09:00:11;0.00;0.00;0.62;0.00;0.00;0.62;1.30;0.60;;;24.90;32.00;;;;;;2245144;61;20413;-68
2022/09/16 09:03:06;0.00;0.00;0.62;0.00;0.00;0.62;1.60;0.70;;;25.00;32.10;;;;;;2245347;61;20810;-64
2022/09/16 09:05:54;0.00;0.00;0.62;0.00;0.00;0.62;2.90;0.80;;;25.00;32.10;;;;;;2245352;61;20599;-66
2022/09/16 09:08:50;0.00;0.00;0.62;0.00;0.00;0.62;2.07;0.80;;;25.00;32.10;;;;;;2245298;61;20725;-67
2022/09/16 09:11:42;0.00;0.00;0.62;0.00;0.00;0.62;3.30;0.83;;;25.10;32.80;;;;;;2244986;61;20430;-69
2022/09/16 09:14:39;0.00;0.00;0.62;0.00;0.00;0.62;1.37;0.70;;;25.10;32.10;;;;;;2245286;61;20389;-68
2022/09/16 09:17:41;0.00;0.00;0.62;0.00;0.00;0.62;1.50;0.80;;;25.20;32.10;;;;;;2245512;61;20381;-69
2022/09/16 09:20:39;0.00;0.00;0.62;0.00;0.00;0.62;1.80;0.80;;;25.20;32.10;;;;;;2245537;61;20356;-67
2022/09/16 09:23:55;0.00;0.00;0.62;0.00;0.00;0.62;1.77;1.10;;;25.30;32.80;;;;;;2245130;61;20748;-64
2022/09/16 09:26:48;0.00;0.00;0.62;0.00;0.00;0.62;2.03;1.00;;;25.30;32.10;;;;;;2245238;61;20444;-65
2022/09/16 09:30:01;0.00;0.00;0.62;0.00;0.00;0.62;1.50;0.80;;;25.40;32.10;;;;;;2245083;61;20402;-67
2022/09/16 09:33:13;0.00;0.00;0.62;0.00;0.00;0.62;1.80;0.87;;;25.40;32.10;;;;;;2245726;61;20381;-64
2022/09/16 09:36:17;0.00;0.00;0.62;0.00;0.00;0.62;1.37;0.80;;;25.50;32.10;;;;;;2244979;61;20354;-65
2022/09/16 09:39:27;0.00;0.00;0.62;0.00;0.00;0.62;1.53;0.80;;;25.50;32.10;;;;;;2245275;61;20389;-66
2022/09/16 09:42:20;0.00;0.00;0.62;0.00;0.00;0.62;1.90;0.80;;;25.60;32.10;;;;;;2245170;61;20405;-64
2022/09/16 09:45:17;0.00;0.00;0.62;0.00;0.00;0.62;2.77;1.03;;;25.60;32.10;;;;;;2245041;61;20397;-68
2022/09/16 09:48:10;0.00;0.00;0.62;0.00;0.00;0.62;1.87;1.10;;;25.60;32.10;;;;;;2247847;61;20382;-70
2022/09/16 09:51:04;0.00;0.00;0.62;0.00;0.00;0.62;2.10;0.90;;;25.70;32.10;;;;;;2245043;61;20361;-69
2022/09/16 09:53:55;0.00;0.00;0.62;0.00;0.00;0.62;2.83;0.90;;;25.70;32.20;;;;;;2245248;61;20665;-68
2022/09/16 09:56:44;0.00;0.00;0.62;0.00;0.00;0.62;1.83;0.80;;;25.80;32.20;;;;;;2245313;61;20781;-71
2022/09/16 09:59:42;0.00;0.00;0.62;0.00;0.00;0.62;1.40;0.73;;;25.80;32.20;;;;;;2247495;61;20401;-66
2022/09/16 10:02:27;0.00;0.00;0.62;0.00;0.00;0.62;1.60;0.87;;;25.80;32.10;;;;;;2245369;61;20409;-66
2022/09/16 10:05:27;0.00;0.00;0.62;0.00;0.00;0.62;1.43;0.80;;;25.90;32.20;;;;;;2245205;61;20356;-62
2022/09/16 10:08:21;0.00;0.00;0.62;0.00;0.00;0.62;1.60;0.90;;;25.90;32.20;;;;;;2245890;61;20361;-66
2022/09/16 10:11:17;0.00;0.00;0.62;0.00;0.00;0.62;2.30;1.03;;;26.00;32.20;;;;;;2245833;61;20889;-64
2022/09/16 10:14:04;0.00;0.00;0.62;0.00;0.00;0.62;1.63;0.90;;;26.00;32.80;;;;;;2248130;61;20429;-65
2022/09/16 10:16:51;0.00;0.00;0.62;0.00;0.00;0.62;1.50;0.90;;;26.10;32.20;;;;;;2245780;61;20357;-63
2022/09/16 10:19:49;0.00;0.00;0.62;0.00;0.00;0.62;1.50;0.80;;;26.10;32.10;;;;;;2245970;61;20761;-65
2022/09/16 10:22:34;0.00;0.00;0.62;0.00;0.00;0.62;1.60;1.00;;;26.10;32.10;;;;;;2245617;61;20409;-64
2022/09/16 10:25:23;0.00;0.00;0.62;0.00;0.00;0.62;1.83;0.80;;;26.20;32.00;;;;;;2245966;61;20377;-65
2022/09/16 10:28:23;0.00;0.00;0.62;0.00;0.00;0.62;2.47;1.00;;;26.20;31.90;;;;;;2245708;61;20357;-63
2022/09/16 10:31:10;0.00;0.00;0.62;0.00;0.00;0.62;1.40;0.70;;;26.20;31.90;;;;;;2245559;61;20393;-65
2022/09/16 10:33:55;0.00;0.00;0.62;0.00;0.00;0.62;2.47;1.00;;;26.30;31.90;;;;;;2245989;61;20397;-63
2022/09/16 10:36:40;0.00;0.00;0.62;0.00;0.00;0.62;1.50;0.90;;;26.30;31.80;;;;;;2245800;61;20745;-65
2022/09/16 10:39:27;0.00;0.00;0.62;0.00;0.00;0.62;1.40;0.80;;;26.30;31.70;;;;;;2246094;61;20389;-66
2022/09/16 10:42:19;0.00;0.00;0.62;0.00;0.00;0.62;1.90;1.10;;;26.30;31.70;;;;;;2245570;61;20413;-66
2022/09/16 10:45:15;0.00;0.00;0.62;0.00;0.00;0.62;1.40;0.90;;;26.40;32.30;;;;;;2245619;61;20357;-63
2022/09/16 10:48:10;0.00;0.00;0.62;0.00;0.00;0.62;2.33;1.03;;;26.40;31.60;;;;;;2245548;61;20438;-64
2022/09/16 10:50:57;0.00;0.00;0.62;0.00;0.00;0.62;1.40;0.77;;;26.40;31.70;;;;;;2245511;61;20605;-64
2022/09/16 10:53:50;0.00;0.00;0.62;0.00;0.00;0.62;1.97;0.80;;;26.50;31.70;;;;;;2245796;61;20421;-65
2022/09/16 10:56:49;0.00;0.00;0.62;0.00;0.00;0.62;1.50;0.70;;;26.50;31.70;;;;;;2245998;61;20401;-64
2022/09/16 10:59:33;0.00;0.00;0.62;0.00;0.00;0.62;1.30;0.63;;;26.50;31.70;;;;;;2245602;61;20370;-65
2022/09/16 11:02:36;0.00;0.00;0.62;0.00;0.00;0.62;1.70;0.80;;;26.60;31.80;;;;;;2245749;61;20394;-66
2022/09/16 11:05:31;0.00;0.00;0.62;0.00;0.00;0.62;1.47;0.80;;;26.60;31.80;;;;;;2245563;61;20405;-64
2022/09/16 11:08:27;0.00;0.00;0.62;0.00;0.00;0.62;1.43;0.70;;;26.60;31.60;;;;;;2245587;61;20589;-62